Time;durP1;ratioP1;P1;durP2;ratioP2;P2;SDS_P1;SDS_P2;PMS_P1;PMS_P2;Temp;Humidity;BMP_temperature;BMP_pressure;BME280_temperature;BME280_humidity;BME280_pressure;Samples;Min_cycle;Max_cycle;Signal;HPM_P1;HPM_P2
2024/04/09 00:00:41;;;;;;;8.20;3.80;;;;;;;16.53;65.98;99875.23;108098;1251;59767;-63
2024/04/09 00:03:08;;;;;;;8.70;3.80;;;;;;;16.61;65.86;99873.81;108290;1251;74419;-62
2024/04/09 00:05:39;;;;;;;5.90;3.50;;;;;;;16.70;65.37;99870.77;108266;1252;69410;-62
2024/04/09 00:08:12;;;;;;;6.90;4.10;;;;;;;16.74;64.92;99868.92;108238;1253;73493;-62
2024/04/09 00:10:40;;;;;;;5.30;3.70;;;;;;;16.74;64.95;99868.58;108286;1251;59965;-63
2024/04/09 00:13:09;;;;;;;11.10;4.50;;;;;;;16.63;65.45;99872.11;108244;1251;60495;-62
2024/04/09 00:15:37;;;;;;;8.20;3.90;;;;;;;16.59;65.70;99873.95;108250;1252;75265;-65
2024/04/09 00:18:17;;;;;;;8.00;4.30;;;;;;;16.61;66.06;99878.44;108323;1252;70187;-63
2024/04/09 00:20:48;;;;;;;4.70;3.50;;;;;;;16.58;66.44;99874.20;108277;1255;71437;-65
2024/04/09 00:23:16;;;;;;;8.40;3.80;;;;;;;16.62;66.14;99873.79;108199;1253;60343;-66
2024/04/09 00:25:45;;;;;;;5.40;3.90;;;;;;;16.45;67.32;99872.93;108271;1252;60326;-66
2024/04/09 00:28:12;;;;;;;5.40;3.70;;;;;;;16.55;67.11;99874.59;108253;1253;74995;-62
2024/04/09 00:30:40;;;;;;;5.30;3.90;;;;;;;16.51;67.10;99871.80;108169;1253;70039;-62
2024/04/09 00:33:08;;;;;;;6.60;4.40;;;;;;;16.32;68.55;99871.76;108304;1253;73055;-62
2024/04/09 00:35:37;;;;;;;6.60;3.80;;;;;;;16.18;69.55;99872.48;108302;1253;60203;-62
2024/04/09 00:38:06;;;;;;;5.70;3.80;;;;;;;16.14;70.52;99872.00;108264;1253;60107;-62
2024/04/09 00:40:36;;;;;;;6.80;3.90;;;;;;;16.03;71.74;99867.23;108296;1251;74955;-62
2024/04/09 00:43:03;;;;;;;7.80;4.20;;;;;;;16.07;72.05;99868.23;108347;1252;69316;-61
2024/04/09 00:45:32;;;;;;;7.80;3.70;;;;;;;15.98;72.69;99873.73;107914;1253;73376;-62
2024/04/09 00:48:00;;;;;;;5.60;4.30;;;;;;;15.94;72.82;99875.89;108254;1253;59900;-62
2024/04/09 00:50:28;;;;;;;;;;;;;;;15.88;73.56;99877.48;108295;1251;59898;-62
2024/04/09 00:52:56;;;;;;;6.20;3.90;;;;;;;15.82;74.52;99874.70;108207;1253;74481;-61
2024/04/09 00:55:27;;;;;;;8.50;4.30;;;;;;;15.77;74.39;99877.25;107848;1251;69835;-61
2024/04/09 00:57:56;;;;;;;6.50;4.40;;;;;;;15.71;75.63;99876.58;108285;1253;72979;-62
2024/04/09 01:00:25;;;;;;;4.80;3.80;;;;;;;15.69;76.42;99875.27;107852;1252;59826;-61
2024/04/09 01:02:53;;;;;;;5.40;4.10;;;;;;;15.68;76.85;99874.62;108261;1253;60122;-61
2024/04/09 01:05:21;;;;;;;7.90;3.90;;;;;;;15.68;77.00;99871.11;108311;1253;74511;-61
2024/04/09 01:07:49;;;;;;;7.40;4.50;;;;;;;15.66;77.79;99872.11;108336;1253;70107;-62
2024/04/09 01:10:16;;;;;;;7.10;4.20;;;;;;;15.64;78.50;99869.94;108239;1253;72907;-61
2024/04/09 01:12:43;;;;;;;7.70;4.10;;;;;;;15.63;78.83;99870.70;108296;1253;60817;-61
2024/04/09 01:15:11;;;;;;;8.90;4.20;;;;;;;15.56;79.29;99868.41;108309;1253;60021;-61
2024/04/09 01:17:39;;;;;;;7.20;4.80;;;;;;;15.66;78.89;99874.72;108121;1253;74227;-62
2024/04/09 01:20:07;;;;;;;6.20;3.80;;;;;;;15.56;78.89;99873.05;108317;1253;69455;-61
2024/04/09 01:22:36;;;;;;;6.60;3.90;;;;;;;15.50;79.95;99871.27;108103;1253;72346;-62
2024/04/09 01:25:04;;;;;;;7.40;4.10;;;;;;;15.49;80.35;99873.11;108238;1253;59186;-61
2024/04/09 01:27:33;;;;;;;5.00;3.80;;;;;;;15.49;80.44;99870.98;108298;1253;60720;-62
2024/04/09 01:30:05;;;;;;;5.40;4.30;;;;;;;15.50;80.41;99875.18;108054;1252;74478;-61
2024/04/09 01:32:32;;;;;;;6.80;4.00;;;;;;;15.49;80.61;99876.83;108218;1253;69749;-61
2024/04/09 01:35:00;;;;;;;5.00;3.90;;;;;;;15.47;80.97;99880.13;108173;1253;73387;-62
2024/04/09 01:37:28;;;;;;;7.30;3.90;;;;;;;15.44;81.39;99879.05;108313;1252;60828;-63
2024/04/09 01:39:55;;;;;;;5.90;4.10;;;;;;;15.42;81.62;99879.88;108276;1253;60663;-61
2024/04/09 01:42:23;;;;;;;;;;;;;;;15.39;81.79;99880.04;108327;1253;75170;-62
2024/04/09 01:44:51;;;;;;;4.90;4.00;;;;;;;15.35;82.05;99885.39;108084;1253;70301;-61
2024/04/09 01:47:19;;;;;;;8.20;4.30;;;;;;;15.34;82.07;99881.77;108285;1251;73015;-61
2024/04/09 01:49:47;;;;;;;5.40;4.10;;;;;;;15.32;82.36;99887.86;108338;1252;59519;-57
2024/04/09 01:52:14;;;;;;;7.10;4.50;;;;;;;15.33;82.87;99888.55;108366;1251;59301;-62
2024/04/09 01:54:48;;;;;;;6.70;4.10;;;;;;;15.32;83.15;99891.23;108271;1253;74477;-62
2024/04/09 01:57:16;;;;;;;7.10;4.20;;;;;;;15.30;83.17;99891.51;108340;1252;68042;-62
2024/04/09 01:59:43;;;;;;;;;;;;;;;15.27;83.55;99892.26;108265;1252;72195;-61
2024/04/09 02:02:13;;;;;;;;;;;;;;;15.24;84.67;99892.77;108090;1253;59868;-62
2024/04/09 02:04:40;;;;;;;8.30;3.50;;;;;;;15.22;85.23;99890.09;108316;1253;59270;-62
2024/04/09 02:07:08;;;;;;;11.00;4.50;;;;;;;15.22;84.81;99893.96;108256;1253;75303;-61
2024/04/09 02:09:35;;;;;;;9.90;4.20;;;;;;;15.24;84.33;99895.61;108149;1251;69422;-62
2024/04/09 02:12:03;;;;;;;9.00;4.10;;;;;;;15.18;84.85;99895.23;108288;1253;75394;-61
2024/04/09 02:14:31;;;;;;;6.60;3.80;;;;;;;15.13;86.10;99892.70;108327;1253;60015;-62
2024/04/09 02:17:00;;;;;;;6.70;4.30;;;;;;;15.09;87.09;99894.15;108115;1253;60741;-62
2024/04/09 02:19:28;;;;;;;4.60;4.00;;;;;;;15.02;87.93;99896.14;108286;1251;77929;-62
2024/04/09 02:21:56;;;;;;;;;;;;;;;14.98;88.58;99892.47;108181;1252;68467;-63
2024/04/09 02:24:25;;;;;;;7.80;4.10;;;;;;;14.96;89.65;99892.61;108200;1251;71618;-62
2024/04/09 02:28:55;;;;;;;7.50;3.90;;;;;;;14.58;95.52;99891.55;104024;1288;601638;-61
2024/04/09 02:31:22;;;;;;;12.10;5.10;;;;;;;14.81;91.80;99892.92;105570;1265;59863;-62
2024/04/09 02:33:51;;;;;;;;;;;;;;;14.82;91.40;99890.58;105721;1265;59897;-62
2024/04/09 02:36:19;;;;;;;5.30;4.10;;;;;;;14.80;92.07;99890.84;106404;1257;72172;-61
2024/04/09 02:38:48;;;;;;;;;;;;;;;14.74;91.61;99890.80;106172;1258;69841;-62
2024/04/09 02:41:17;;;;;;;7.90;3.90;;;;;;;14.72;92.59;99891.48;106303;1260;72554;-61
2024/04/09 02:43:44;;;;;;;6.20;4.20;;;;;;;14.67;92.97;99892.64;105654;1259;731583;-61
2024/04/09 02:46:12;;;;;;;7.70;4.40;;;;;;;14.62;93.62;99893.29;106587;1256;60957;-62
2024/04/09 02:48:40;;;;;;;10.50;4.80;;;;;;;14.59;93.89;99893.09;106433;1257;73713;-61
2024/04/09 02:51:09;;;;;;;4.90;3.50;;;;;;;14.54;95.18;99896.15;106330;1255;72095;-63
2024/04/09 02:53:36;;;;;;;5.10;4.30;;;;;;;14.50;96.24;99897.77;105990;1257;73357;-61
2024/04/09 02:56:08;;;;;;;7.30;3.80;;;;;;;14.48;96.53;99896.98;106409;1257;60372;-61
2024/04/09 02:58:36;;;;;;;6.80;4.20;;;;;;;14.46;97.18;99899.41;106647;1259;60104;-63
2024/04/09 03:01:07;;;;;;;5.70;3.80;;;;;;;14.43;97.70;99897.30;106570;1257;75097;-62
2024/04/09 03:03:37;;;;;;;8.70;4.20;;;;;;;14.40;98.47;99898.34;106656;1256;68323;-61
2024/04/09 03:06:09;;;;;;;5.20;4.00;;;;;;;14.37;99.07;99902.90;107072;1257;73454;-62
2024/04/09 03:08:40;;;;;;;4.50;4.10;;;;;;;14.38;99.19;99903.03;106737;1255;60457;-64
2024/04/09 03:11:16;;;;;;;5.90;3.60;;;;;;;14.43;98.43;99908.58;106425;1255;59826;-61
2024/04/09 03:13:45;;;;;;;7.00;3.60;;;;;;;14.39;99.33;99911.41;106525;1256;74087;-63
2024/04/09 03:16:13;;;;;;;5.10;3.90;;;;;;;14.37;99.36;99913.30;106410;1256;68098;-63
2024/04/09 03:18:43;;;;;;;7.10;3.90;;;;;;;14.36;99.91;99915.80;106508;1256;73010;-57
2024/04/09 03:21:11;;;;;;;5.30;4.10;;;;;;;14.44;99.55;99918.94;106322;1260;60561;-57
2024/04/09 03:23:39;;;;;;;4.50;3.90;;;;;;;14.39;98.49;99919.72;106466;1256;60562;-58
2024/04/09 03:26:09;;;;;;;7.60;4.70;;;;;;;14.31;99.90;99922.95;105988;1256;74499;-56
2024/04/09 03:28:38;;;;;;;6.90;4.10;;;;;;;14.29;99.89;99924.65;106411;1256;68154;-57
2024/04/09 03:31:06;;;;;;;6.30;4.00;;;;;;;14.28;100.00;99922.95;106335;1257;72911;-57
2024/04/09 03:33:33;;;;;;;4.60;3.70;;;;;;;14.26;100.00;99924.48;106424;1256;61036;-58
2024/04/09 03:36:04;;;;;;;5.20;3.30;;;;;;;14.24;100.00;99924.38;106401;1255;60444;-55
2024/04/09 03:38:31;;;;;;;9.60;4.10;;;;;;;14.22;100.00;99926.25;106415;1262;73596;-57
2024/04/09 03:41:01;;;;;;;9.10;4.20;;;;;;;14.25;100.00;99927.36;106981;1256;69735;-60
2024/04/09 03:43:29;;;;;;;5.20;3.30;;;;;;;14.28;100.00;99928.73;107094;1256;72480;-54
2024/04/09 03:46:10;;;;;;;5.60;4.00;;;;;;;14.33;100.00;99932.92;106105;1262;61826;-57
2024/04/09 03:48:43;;;;;;;6.20;3.60;;;;;;;14.33;100.00;99932.19;106610;1257;60510;-55
2024/04/09 03:51:14;;;;;;;6.30;3.70;;;;;;;14.47;100.00;99931.27;106815;1257;74104;-55
2024/04/09 03:53:42;;;;;;;4.90;3.90;;;;;;;14.32;100.00;99932.08;106639;1259;69733;-56
2024/04/09 03:56:10;;;;;;;;;;;;;;;14.31;100.00;99935.13;106485;1262;72429;-55
2024/04/09 03:58:39;;;;;;;11.00;4.90;;;;;;;14.42;100.00;99935.07;106406;1257;61758;-56
2024/04/09 04:01:16;;;;;;;4.00;3.60;;;;;;;14.55;100.00;99933.52;106000;1257;60624;-56
2024/04/09 04:03:45;;;;;;;4.90;3.80;;;;;;;14.59;100.00;99938.39;107207;1256;72797;-56
2024/04/09 04:06:14;;;;;;;7.20;4.00;;;;;;;14.45;100.00;99936.70;107294;1254;71932;-57
2024/04/09 04:08:42;;;;;;;6.90;3.60;;;;;;;14.39;100.00;99947.75;106891;1254;72891;-56
2024/04/09 04:11:11;;;;;;;6.50;3.80;;;;;;;14.46;100.00;99945.09;107519;1254;61702;-55
2024/04/09 04:13:40;;;;;;;4.70;3.40;;;;;;;14.52;100.00;99947.41;106707;1251;61839;-56
2024/04/09 04:16:09;;;;;;;5.50;3.50;;;;;;;14.51;100.00;99948.00;107128;1251;74063;-56
2024/04/09 04:18:37;;;;;;;5.60;3.70;;;;;;;14.58;100.00;99949.38;107686;1251;69671;-56
2024/04/09 04:21:09;;;;;;;7.30;3.30;;;;;;;14.76;100.00;99951.59;107193;1253;72370;-55
2024/04/09 04:23:42;;;;;;;9.70;3.80;;;;;;;14.79;100.00;99952.17;107156;1253;65026;-56
2024/04/09 06:04:47;;;;;;;3.70;2.20;;;;;;;18.89;61.54;99965.00;103976;1289;601489;-56
2024/04/09 06:07:16;;;;;;;4.10;2.70;;;;;;;19.04;61.21;99973.82;105365;1267;61475;-56
2024/04/09 06:09:45;;;;;;;;;;;;;;;19.19;60.68;99976.48;105411;1266;60322;-57
2024/04/09 06:12:12;;;;;;;7.60;2.30;;;;;;;19.36;58.04;99975.73;105264;1267;75083;-56
2024/04/09 06:14:40;;;;;;;3.30;2.40;;;;;;;19.49;57.89;99977.14;105214;1267;68856;-57
2024/04/09 06:17:09;;;;;;;6.10;2.00;;;;;;;19.65;56.74;99972.69;105433;1266;73174;-56
2024/04/09 06:19:37;;;;;;;7.10;2.30;;;;;;;19.82;56.21;99979.63;104499;1265;60159;-56
2024/04/09 06:22:05;;;;;;;5.90;2.00;;;;;;;19.86;55.78;99978.65;105514;1268;61569;-56
2024/04/09 06:24:33;;;;;;;4.30;1.60;;;;;;;19.97;55.34;99983.61;105770;1265;75522;-58
2024/04/09 06:27:02;;;;;;;2.50;1.80;;;;;;;20.03;53.96;99983.74;105979;1265;69560;-57
2024/04/09 06:29:30;;;;;;;4.70;1.70;;;;;;;19.98;53.89;99986.41;105739;1269;72012;-57
2024/04/09 06:32:00;;;;;;;3.60;2.30;;;;;;;20.10;53.43;99985.33;105600;1267;60549;-56
2024/04/09 06:34:28;;;;;;;5.40;2.00;;;;;;;20.25;53.83;99984.17;105575;1269;59839;-56
2024/04/09 06:36:57;;;;;;;4.10;1.80;;;;;;;20.40;52.79;99986.77;105660;1268;77332;-56
2024/04/09 06:39:27;;;;;;;4.00;1.60;;;;;;;20.68;51.13;99987.55;106526;1264;72232;-57
2024/04/09 06:41:55;;;;;;;5.70;1.90;;;;;;;20.87;51.16;99989.30;105929;1266;72541;-56
2024/04/09 06:44:24;;;;;;;2.10;1.40;;;;;;;20.98;50.27;99992.15;106055;1264;60384;-56
2024/04/09 06:46:52;;;;;;;3.40;1.90;;;;;;;20.89;50.28;99993.91;106148;1263;59340;-56
2024/04/09 06:49:20;;;;;;;2.40;1.50;;;;;;;20.96;50.30;99996.77;105736;1264;73991;-56
2024/04/09 06:51:49;;;;;;;3.60;1.80;;;;;;;21.04;49.99;99994.66;106070;1264;71389;-56
2024/04/09 06:54:17;;;;;;;;;;;;;;;21.15;50.17;99990.95;106555;1265;72561;-59
2024/04/09 06:56:45;;;;;;;4.00;1.70;;;;;;;21.28;50.44;99989.51;106592;1264;61008;-58
2024/04/09 06:59:13;;;;;;;3.00;1.90;;;;;;;21.51;49.95;99988.86;106821;1264;61897;-57
2024/04/09 07:01:42;;;;;;;4.00;1.60;;;;;;;21.81;49.03;99988.58;107117;1260;76945;-57
2024/04/09 07:04:10;;;;;;;3.20;1.60;;;;;;;21.96;47.91;99987.98;106963;1260;72520;-57
2024/04/09 07:06:39;;;;;;;2.50;1.40;;;;;;;22.05;46.89;99990.34;107238;1257;75149;-57
2024/04/09 07:09:07;;;;;;;4.20;1.70;;;;;;;22.12;45.53;99989.35;107393;1257;62617;-57
2024/04/09 07:11:36;;;;;;;3.00;1.60;;;;;;;22.17;45.11;99989.80;107542;1257;62504;-67
2024/04/09 07:14:05;;;;;;;6.10;2.10;;;;;;;22.26;44.97;99989.04;107056;1257;75016;-61
2024/04/09 07:16:34;;;;;;;4.30;1.30;;;;;;;22.30;44.20;99987.98;106195;1256;69963;-61
2024/04/09 07:19:04;;;;;;;2.50;1.60;;;;;;;22.25;44.19;99986.14;106433;1257;73561;-60
2024/04/09 07:21:32;;;;;;;4.80;1.70;;;;;;;22.19;43.93;99986.80;106264;1257;61182;-60
2024/04/09 07:24:01;;;;;;;4.00;2.10;;;;;;;22.20;43.82;99983.48;106514;1261;62185;-60
2024/04/09 07:26:29;;;;;;;3.30;1.60;;;;;;;22.38;43.58;99978.96;106387;1257;76893;-60
2024/04/09 07:28:57;;;;;;;1.70;1.20;;;;;;;22.43;43.18;99978.51;106696;1257;72411;-61
2024/04/09 07:31:25;;;;;;;4.10;1.30;;;;;;;22.39;43.15;99976.51;106411;1259;72899;-61
2024/04/09 07:33:54;;;;;;;1.60;1.30;;;;;;;22.43;43.24;99975.93;107152;1257;59954;-62
2024/04/09 07:36:25;;;;;;;1.70;1.10;;;;;;;22.49;43.11;99974.56;107256;1257;62466;-61
2024/04/09 07:38:55;;;;;;;2.40;1.10;;;;;;;22.62;43.39;99971.52;106579;1260;73654;-60
2024/04/09 07:41:26;;;;;;;2.60;1.10;;;;;;;22.98;43.31;99973.13;106448;1257;70598;-61
2024/04/09 07:43:55;;;;;;;1.40;0.90;;;;;;;23.08;42.55;99967.96;107058;1257;74909;-61
2024/04/09 07:46:24;;;;;;;1.40;1.30;;;;;;;23.08;42.53;99968.65;106498;1257;60617;-61
2024/04/09 07:48:52;;;;;;;4.00;1.10;;;;;;;23.17;42.22;99971.11;106743;1260;59773;-60
2024/04/09 07:51:20;;;;;;;1.80;1.10;;;;;;;23.29;41.26;99972.83;106652;1258;76910;-62
2024/04/09 07:53:48;;;;;;;1.80;1.10;;;;;;;23.16;41.41;99967.54;105533;1257;71015;-60
2024/04/09 07:56:17;;;;;;;1.10;1.00;;;;;;;23.33;41.16;99966.52;105251;1260;72210;-60
2024/04/09 07:58:44;;;;;;;2.80;1.50;;;;;;;23.42;40.86;99967.93;105281;1257;60510;-60
2024/04/09 08:01:12;;;;;;;1.40;1.30;;;;;;;23.43;41.05;99962.14;105350;1258;60415;-58
2024/04/09 08:03:40;;;;;;;;;;;;;;;23.39;41.22;99958.55;105043;1257;72932;-61
2024/04/09 08:06:08;;;;;;;2.70;1.30;;;;;;;23.48;41.48;99954.34;106231;1259;69687;-60
2024/04/09 08:08:35;;;;;;;;;;;;;;;23.36;41.10;99955.46;105541;1259;72500;-61
2024/04/09 08:11:09;;;;;;;1.30;1.10;;;;;;;23.37;41.05;99952.66;105651;1257;60566;-60
2024/04/09 08:13:37;;;;;;;5.20;1.00;;;;;;;23.40;41.11;99948.25;106011;1257;60102;-57
2024/04/09 08:16:06;;;;;;;1.70;1.20;;;;;;;23.48;40.77;99946.27;105753;1258;74181;-57
2024/04/09 08:18:34;;;;;;;1.50;1.40;;;;;;;23.54;40.36;99939.62;105944;1257;68346;-56
2024/04/09 08:21:02;;;;;;;2.80;1.10;;;;;;;23.56;40.22;99942.67;106128;1257;72822;-56
2024/04/09 08:23:30;;;;;;;1.60;1.00;;;;;;;23.62;40.20;99937.05;105659;1257;60520;-55
2024/04/09 08:25:59;;;;;;;2.10;0.90;;;;;;;23.70;40.37;99936.16;105400;1256;60569;-55
2024/04/09 08:28:26;;;;;;;1.50;1.00;;;;;;;23.77;40.02;99929.27;105599;1256;74349;-57
2024/04/09 08:30:54;;;;;;;1.20;1.00;;;;;;;23.81;40.07;99929.61;105534;1258;70069;-57
2024/04/09 08:33:22;;;;;;;1.90;1.30;;;;;;;23.91;39.68;99931.21;106148;1257;72875;-57
2024/04/09 08:35:50;;;;;;;;;;;;;;;23.99;39.45;99932.55;105697;1257;60780;-58
2024/04/09 08:38:20;;;;;;;1.80;1.20;;;;;;;24.10;38.75;99931.77;105327;1259;61578;-59
2024/04/09 08:40:48;;;;;;;2.60;1.00;;;;;;;24.08;38.32;99921.90;106126;1257;73603;-59
2024/04/09 08:43:16;;;;;;;2.40;1.20;;;;;;;24.03;38.56;99929.33;105515;1257;70255;-58
2024/04/09 08:45:45;;;;;;;1.90;1.20;;;;;;;24.06;38.57;99925.70;105813;1256;73345;-58
2024/04/09 08:48:13;;;;;;;3.50;1.30;;;;;;;24.14;38.37;99921.82;106169;1259;59720;-58
2024/04/09 08:50:46;;;;;;;1.90;1.00;;;;;;;24.14;38.49;99922.02;105783;1259;61853;-60
2024/04/09 08:53:16;;;;;;;2.00;1.20;;;;;;;24.27;38.05;99917.26;105922;1256;72948;-60
2024/04/09 08:55:44;;;;;;;3.30;1.40;;;;;;;24.41;37.77;99915.52;105899;1260;69525;-59
2024/04/09 08:58:12;;;;;;;2.30;1.20;;;;;;;24.48;37.75;99907.64;107406;1256;73309;-58
2024/04/09 09:00:40;;;;;;;3.10;1.50;;;;;;;24.56;36.94;99915.77;106004;1257;60464;-61
2024/04/09 09:03:08;;;;;;;2.10;1.50;;;;;;;24.58;37.03;99909.29;106306;1256;59458;-59
2024/04/09 09:05:36;;;;;;;2.80;1.50;;;;;;;24.65;37.04;99907.70;106670;1256;76467;-58
2024/04/09 09:08:05;;;;;;;;;;;;;;;24.66;36.50;99899.48;106797;1256;69498;-58
2024/04/09 09:10:35;;;;;;;2.50;1.50;;;;;;;24.70;36.25;99902.38;107086;1257;71773;-59
2024/04/09 09:13:04;;;;;;;2.70;1.50;;;;;;;24.74;36.06;99899.28;107269;1257;60784;-59
2024/04/09 09:15:33;;;;;;;2.00;1.50;;;;;;;24.81;36.16;99901.77;107369;1257;60562;-58
2024/04/09 09:18:02;;;;;;;3.30;1.60;;;;;;;24.89;35.26;99893.48;107502;1256;74327;-59
2024/04/09 09:20:31;;;;;;;5.70;1.50;;;;;;;24.97;35.24;99895.07;107563;1255;69496;-58
2024/04/09 09:23:00;;;;;;;3.80;1.50;;;;;;;25.02;34.88;99898.84;107629;1257;75203;-59
2024/04/09 09:25:29;;;;;;;4.90;1.70;;;;;;;25.10;34.94;99892.50;107193;1257;62076;-58
2024/04/09 09:28:07;;;;;;;1.90;1.60;;;;;;;25.11;34.66;99890.80;105498;1256;60553;-59
2024/04/09 09:30:42;;;;;;;1.70;1.40;;;;;;;25.11;34.13;99887.75;105577;1257;72503;-58
2024/04/09 09:33:18;;;;;;;1.90;1.10;;;;;;;25.12;33.42;99886.89;105535;1262;70546;-58
2024/04/09 09:35:50;;;;;;;3.00;1.70;;;;;;;25.11;33.00;99888.09;105485;1256;71777;-57
2024/04/09 09:38:28;;;;;;;1.60;1.10;;;;;;;25.13;32.28;99882.28;105721;1257;60517;-58
2024/04/09 09:41:00;;;;;;;3.30;1.30;;;;;;;25.17;31.71;99882.98;105898;1257;59743;-59
2024/04/09 09:43:27;;;;;;;2.80;1.40;;;;;;;25.22;31.26;99887.15;106672;1257;72909;-59
2024/04/09 09:45:55;;;;;;;2.70;1.20;;;;;;;25.26;30.85;99877.83;106222;1257;69550;-59
2024/04/09 09:48:24;;;;;;;1.70;1.60;;;;;;;25.27;31.48;99875.04;105621;1257;71598;-58
2024/04/09 09:50:53;;;;;;;2.10;1.50;;;;;;;25.29;30.93;99873.74;106210;1256;60546;-59
2024/04/09 09:53:21;;;;;;;2.20;1.30;;;;;;;25.30;30.71;99877.99;105542;1256;59672;-58
2024/04/09 09:55:55;;;;;;;1.30;1.20;;;;;;;25.23;30.98;99881.65;105262;1260;73786;-59
2024/04/09 09:58:25;;;;;;;1.90;1.30;;;;;;;25.23;31.22;99875.42;105450;1259;69694;-59
2024/04/09 10:00:53;;;;;;;1.50;1.20;;;;;;;25.39;30.86;99872.35;105353;1259;72470;-57
2024/04/09 10:03:21;;;;;;;;;;;;;;;25.42;30.95;99870.85;105826;1257;60657;-60
2024/04/09 10:05:49;;;;;;;1.40;1.30;;;;;;;25.51;31.00;99869.95;106537;1257;59900;-58
2024/04/09 10:08:18;;;;;;;1.60;1.40;;;;;;;25.61;31.24;99871.58;105668;1257;73739;-59
2024/04/09 10:10:47;;;;;;;3.90;1.30;;;;;;;25.61;30.91;99868.15;105323;1259;69681;-58
2024/04/09 10:13:24;;;;;;;4.00;0.90;;;;;;;25.49;31.07;99869.03;104814;1259;72725;-57
2024/04/09 10:15:56;;;;;;;2.90;1.60;;;;;;;25.54;30.86;99878.23;105394;1253;61241;-59
2024/04/09 10:18:34;;;;;;;2.50;1.50;;;;;;;25.72;30.51;99869.20;104988;1253;61250;-58
2024/04/09 10:21:03;;;;;;;2.90;1.40;;;;;;;25.75;30.14;99876.04;105763;1253;74498;-58
2024/04/09 10:23:38;;;;;;;2.80;1.30;;;;;;;25.79;29.99;99862.71;105476;1259;68627;-58
2024/04/09 10:26:06;;;;;;;1.90;1.20;;;;;;;25.68;30.59;99864.75;105627;1253;72066;-58
2024/04/09 10:28:35;;;;;;;3.20;1.30;;;;;;;25.64;30.89;99867.35;105765;1255;61220;-58
2024/04/09 10:31:14;;;;;;;2.30;1.60;;;;;;;25.67;30.76;99861.31;105095;1258;61230;-58
2024/04/09 10:33:42;;;;;;;5.00;1.20;;;;;;;25.63;30.49;99855.94;105347;1257;75154;-60
2024/04/09 10:36:12;;;;;;;;;;;;;;;25.65;30.20;99857.73;105103;1258;70612;-57
2024/04/09 10:38:42;;;;;;;1.50;1.30;;;;;;;25.62;30.54;99854.55;105007;1254;71518;-57
2024/04/09 10:41:11;;;;;;;2.00;1.10;;;;;;;25.67;30.40;99848.20;105489;1259;61551;-58
2024/04/09 10:43:40;;;;;;;2.90;1.30;;;;;;;25.67;30.70;99848.02;105908;1254;61363;-58
2024/04/09 10:46:07;;;;;;;1.20;1.10;;;;;;;25.66;30.42;99850.94;106496;1256;75539;-58
2024/04/09 10:48:43;;;;;;;3.40;1.40;;;;;;;25.72;30.28;99852.71;105517;1253;68931;-63
2024/04/09 10:51:12;;;;;;;2.30;1.50;;;;;;;25.78;30.71;99852.60;106520;1254;74145;-63
2024/04/09 10:53:40;;;;;;;1.60;1.10;;;;;;;25.86;30.75;99843.94;105691;1254;61317;-63
2024/04/09 10:56:08;;;;;;;5.00;1.40;;;;;;;25.92;30.67;99845.43;106198;1258;61253;-64
2024/04/09 10:58:38;;;;;;;;;;;;;;;25.98;30.58;99838.14;106295;1253;74777;-63
2024/04/09 11:01:12;;;;;;;2.20;1.30;;;;;;;26.01;29.90;99838.79;106635;1253;69976;-64
2024/04/09 11:03:40;;;;;;;1.30;1.20;;;;;;;26.07;30.60;99833.53;106133;1253;73532;-63
2024/04/09 11:06:12;;;;;;;3.80;1.10;;;;;;;26.14;30.89;99832.89;105867;1258;61422;-62
2024/04/09 11:08:40;;;;;;;3.50;1.30;;;;;;;26.20;31.00;99828.17;106729;1253;61339;-63
2024/04/09 11:11:08;;;;;;;2.30;1.30;;;;;;;26.23;30.40;99827.81;106432;1257;74434;-63
2024/04/09 11:13:36;;;;;;;3.60;1.20;;;;;;;26.25;30.37;99819.56;107045;1254;69848;-63
2024/04/09 11:16:03;;;;;;;;;;;;;;;26.28;30.16;99820.79;106438;1256;72732;-61
2024/04/09 11:18:31;;;;;;;;;;;;;;;26.37;29.94;99823.42;106024;1259;61128;-63
2024/04/09 11:21:03;;;;;;;5.00;1.20;;;;;;;26.48;29.71;99816.45;105535;1252;61353;-63
2024/04/09 11:23:31;;;;;;;4.40;1.70;;;;;;;26.45;29.53;99804.16;105514;1254;74475;-63
2024/04/09 11:26:01;;;;;;;1.80;1.50;;;;;;;26.50;28.74;99816.36;106161;1253;69547;-63
2024/04/09 11:28:30;;;;;;;4.00;1.60;;;;;;;26.45;28.53;99812.71;105820;1258;75642;-62
2024/04/09 11:30:59;;;;;;;4.90;1.60;;;;;;;26.48;28.98;99809.52;106039;1254;61179;-62
2024/04/09 11:33:27;;;;;;;2.90;1.50;;;;;;;26.57;28.68;99808.81;106059;1253;61417;-62
2024/04/09 11:35:59;;;;;;;2.50;1.60;;;;;;;26.57;28.35;99806.21;106134;1253;73407;-63
2024/04/09 11:38:30;;;;;;;3.30;1.50;;;;;;;26.58;28.42;99799.64;106193;1257;70203;-63
2024/04/09 11:40:57;;;;;;;;;;;;;;;26.66;28.75;99799.16;106723;1253;75502;-62
2024/04/09 11:43:24;;;;;;;1.60;1.40;;;;;;;26.73;28.34;99793.44;105751;1254;61413;-63
2024/04/09 11:45:57;;;;;;;;;;;;;;;26.75;28.37;99795.13;105421;1258;61505;-63
2024/04/09 11:48:24;;;;;;;3.50;1.60;;;;;;;26.79;28.24;99792.27;106206;1254;75149;-62
2024/04/09 11:50:52;;;;;;;2.40;1.50;;;;;;;26.76;28.01;99790.20;106122;1253;69523;-58
2024/04/09 11:53:20;;;;;;;3.80;1.80;;;;;;;26.78;27.94;99787.34;105807;1259;72823;-62
2024/04/09 11:55:53;;;;;;;1.90;1.30;;;;;;;26.75;27.78;99788.17;105572;1253;61350;-63
2024/04/09 11:58:21;;;;;;;1.40;1.30;;;;;;;26.68;27.91;99775.83;105387;1255;61435;-64
2024/04/09 12:00:49;;;;;;;;;;;;;;;26.61;27.73;99771.30;106350;1257;76498;-64
2024/04/09 12:03:16;;;;;;;2.90;1.50;;;;;;;26.65;28.00;99779.36;105427;1253;69827;-63
2024/04/09 12:05:44;;;;;;;2.60;1.20;;;;;;;26.72;28.17;99770.34;105460;1259;72862;-64
2024/04/09 12:08:12;;;;;;;;;;;;;;;26.83;28.16;99766.41;105124;1253;61395;-64
2024/04/09 12:10:39;;;;;;;;;;;;;;;26.93;28.30;99765.33;105858;1253;61333;-65
2024/04/09 12:13:07;;;;;;;4.10;1.40;;;;;;;27.01;28.22;99762.90;106808;1257;74769;-64
2024/04/09 12:15:35;;;;;;;;;;;;;;;27.02;28.02;99760.59;105419;1256;72390;-64
2024/04/09 12:18:03;;;;;;;3.50;2.00;;;;;;;27.05;27.95;99760.98;106551;1253;71677;-63
2024/04/09 12:20:31;;;;;;;4.10;2.70;;;;;;;27.10;27.67;99757.40;106342;1253;61388;-63
2024/04/09 12:22:59;;;;;;;5.10;2.00;;;;;;;27.15;27.41;99752.27;106506;1256;61684;-64
2024/04/09 12:25:27;;;;;;;3.30;2.70;;;;;;;27.17;27.45;99747.34;105848;1252;73751;-64
2024/04/09 12:27:55;;;;;;;3.20;2.10;;;;;;;27.16;27.57;99750.01;107028;1258;68301;-67
2024/04/09 12:30:23;;;;;;;3.40;1.80;;;;;;;27.13;27.37;99740.60;106647;1253;72721;-65
2024/04/09 12:32:51;;;;;;;2.50;1.70;;;;;;;27.19;27.14;99741.59;106269;1253;62203;-64
2024/04/09 12:35:21;;;;;;;4.10;1.80;;;;;;;27.21;27.22;99740.32;106229;1253;62795;-64
2024/04/09 12:37:50;;;;;;;2.90;1.40;;;;;;;27.26;27.12;99736.69;106573;1256;74445;-64
2024/04/09 12:40:17;;;;;;;4.20;1.50;;;;;;;27.36;27.17;99730.73;105765;1253;69562;-64
2024/04/09 12:42:45;;;;;;;4.80;2.60;;;;;;;27.47;27.24;99728.05;105774;1256;72545;-64
2024/04/09 12:45:13;;;;;;;;;;;;;;;27.47;26.36;99728.48;106411;1254;61329;-64
2024/04/09 12:47:41;;;;;;;6.80;2.50;;;;;;;27.40;26.13;99724.80;106124;1253;62171;-66
2024/04/09 12:50:13;;;;;;;4.00;2.20;;;;;;;27.36;26.21;99718.36;105974;1253;77241;-65
2024/04/09 12:52:41;;;;;;;5.90;3.00;;;;;;;27.44;26.37;99723.73;106221;1256;69938;-64
2024/04/09 12:55:10;;;;;;;4.50;2.20;;;;;;;27.52;25.80;99721.91;106262;1254;73403;-59
2024/04/09 12:57:37;;;;;;;4.40;2.60;;;;;;;27.49;25.80;99718.32;107068;1254;59690;-60
2024/04/09 13:00:08;;;;;;;3.50;2.10;;;;;;;27.49;26.01;99718.16;107068;1257;61775;-58
2024/04/09 13:02:56;;;;;;;2.30;2.00;;;;;;;27.58;26.05;99716.44;106476;1256;75434;-59
2024/04/09 13:05:23;;;;;;;2.40;2.00;;;;;;;27.65;26.07;99710.70;106085;1254;69985;-58
2024/04/09 13:07:52;;;;;;;3.10;2.20;;;;;;;27.76;25.95;99706.69;105844;1253;72595;-59
2024/04/09 13:10:20;;;;;;;3.90;2.30;;;;;;;27.86;25.85;99705.44;106596;1254;61264;-59
2024/04/09 13:12:49;;;;;;;3.90;2.20;;;;;;;28.00;26.20;99700.31;107082;1254;61189;-60
2024/04/09 13:15:18;;;;;;;3.60;2.00;;;;;;;28.19;26.13;99705.54;107490;1253;74889;-57
2024/04/09 13:17:49;;;;;;;3.30;1.70;;;;;;;28.49;26.09;99705.75;106460;1253;72001;-60